createdAt,value
2023-03-30T00:00:35.413Z,99.99
2023-03-30T00:01:35.421Z,99.99
2023-03-30T00:02:35.446Z,99.99
2023-03-30T00:03:35.419Z,99.99
2023-03-30T00:04:35.611Z,99.99
2023-03-30T00:05:35.369Z,99.99
2023-03-30T00:06:35.338Z,99.99
2023-03-30T00:07:35.326Z,99.99
2023-03-30T00:08:35.322Z,99.99
2023-03-30T00:09:35.375Z,99.99
2023-03-30T00:10:35.298Z,99.99
2023-03-30T00:11:35.287Z,99.99
2023-03-30T00:12:35.279Z,99.95
2023-03-30T00:13:35.308Z,99.99
2023-03-30T00:14:35.265Z,99.99
2023-03-30T00:15:35.306Z,99.95
2023-03-30T00:16:35.273Z,99.99
2023-03-30T00:17:35.353Z,99.99
2023-03-30T00:18:35.225Z,99.99
2023-03-30T00:19:35.211Z,99.99
2023-03-30T00:20:35.265Z,99.95
2023-03-30T00:21:35.197Z,99.95
2023-03-30T00:22:35.190Z,99.99
2023-03-30T00:23:35.163Z,99.99
2023-03-30T00:24:35.162Z,99.99
2023-03-30T00:25:35.196Z,99.99
2023-03-30T00:26:35.152Z,99.80
2023-03-30T00:27:35.141Z,99.29
2023-03-30T00:28:35.121Z,99.50
2023-03-30T00:29:35.105Z,99.50
2023-03-30T00:30:35.147Z,98.94
2023-03-30T00:31:35.143Z,99.60
2023-03-30T00:32:35.124Z,98.94
2023-03-30T00:33:45.775Z,98.94
2023-03-30T00:34:36.053Z,98.53
2023-03-30T00:35:35.109Z,98.33
2023-03-30T00:36:35.040Z,97.81
2023-03-30T00:37:35.024Z,97.40
2023-03-30T00:38:35.010Z,98.02
2023-03-30T00:39:35.031Z,97.87
2023-03-30T00:40:35.050Z,97.30
2023-03-30T00:41:34.979Z,97.61
2023-03-30T00:42:34.974Z,96.99
2023-03-30T00:43:34.953Z,96.58
2023-03-30T00:44:34.941Z,97.09
2023-03-30T00:45:35.041Z,97.30
2023-03-30T00:46:34.993Z,96.99
2023-03-30T00:47:34.984Z,96.69
2023-03-30T00:48:34.961Z,96.99
2023-03-30T00:49:34.916Z,96.64
2023-03-30T00:50:34.943Z,96.89
2023-03-30T00:51:34.930Z,96.79
2023-03-30T00:52:34.860Z,96.69
2023-03-30T00:53:34.863Z,96.89
2023-03-30T00:54:34.854Z,96.79
2023-03-30T00:55:34.823Z,96.99
2023-03-30T00:56:34.886Z,97.14
2023-03-30T00:57:34.810Z,97.40
2023-03-30T00:58:34.855Z,97.65
2023-03-30T00:59:34.816Z,97.61
2023-03-30T01:00:34.781Z,97.30
2023-03-30T01:01:34.851Z,97.20
2023-03-30T01:02:34.821Z,96.79
2023-03-30T01:03:34.882Z,96.48
2023-03-30T01:04:34.732Z,96.89
2023-03-30T01:05:34.757Z,96.74
2023-03-30T01:06:34.768Z,96.79
2023-03-30T01:07:34.693Z,96.99
2023-03-30T01:08:34.703Z,96.28
2023-03-30T01:09:34.682Z,96.48
2023-03-30T01:10:34.671Z,96.48
2023-03-30T01:11:34.670Z,96.69
2023-03-30T01:12:34.717Z,96.58
2023-03-30T01:13:34.642Z,96.79
2023-03-30T01:14:34.627Z,96.17
2023-03-30T01:15:34.675Z,97.30
2023-03-30T01:16:34.614Z,96.38
2023-03-30T01:17:34.682Z,96.69
2023-03-30T01:18:34.592Z,96.17
2023-03-30T01:19:34.589Z,96.07
2023-03-30T01:20:34.560Z,95.87
2023-03-30T01:21:34.568Z,96.17
2023-03-30T01:22:34.641Z,96.48
2023-03-30T01:23:34.531Z,96.69
2023-03-30T01:24:34.532Z,96.42
2023-03-30T01:25:34.521Z,96.73
2023-03-30T01:26:34.497Z,96.48
2023-03-30T01:27:34.572Z,96.48
2023-03-30T01:28:34.499Z,96.73
2023-03-30T01:29:34.490Z,96.48
2023-03-30T01:30:34.491Z,96.48
2023-03-30T01:31:34.456Z,96.28
2023-03-30T01:32:34.448Z,96.17
2023-03-30T01:33:34.493Z,95.46
2023-03-30T01:34:34.435Z,95.05
2023-03-30T01:35:34.487Z,95.36
2023-03-30T01:36:34.402Z,95.46
2023-03-30T01:37:34.404Z,95.51
2023-03-30T01:38:35.313Z,95.00
2023-03-30T01:39:34.365Z,95.41
2023-03-30T01:40:34.361Z,95.00
2023-03-30T01:41:34.424Z,95.21
2023-03-30T01:42:34.341Z,95.25
2023-03-30T01:43:34.392Z,95.00
2023-03-30T01:44:34.320Z,95.31
2023-03-30T01:45:34.303Z,95.31
2023-03-30T01:46:34.409Z,94.80
2023-03-30T01:47:34.296Z,95.15
2023-03-30T01:48:34.264Z,95.25
2023-03-30T01:49:34.313Z,95.10
2023-03-30T01:50:34.252Z,94.39
2023-03-30T01:51:34.235Z,94.34
2023-03-30T01:52:34.287Z,93.73
2023-03-30T01:53:34.236Z,93.93
2023-03-30T01:54:34.204Z,94.14
2023-03-30T01:55:34.209Z,94.24
2023-03-30T01:56:34.179Z,93.52
2023-03-30T01:57:34.260Z,94.18
2023-03-30T01:58:34.189Z,94.14
2023-03-30T01:59:34.168Z,94.39
2023-03-30T02:00:34.202Z,93.73
2023-03-30T02:01:34.252Z,93.63
2023-03-30T02:02:34.235Z,93.63
2023-03-30T02:03:34.239Z,93.52
2023-03-30T02:04:34.104Z,92.66
2023-03-30T02:05:34.111Z,92.91
2023-03-30T02:06:34.144Z,92.91
2023-03-30T02:07:34.128Z,92.25
2023-03-30T02:08:34.089Z,91.74
2023-03-30T02:09:34.069Z,92.87
2023-03-30T02:10:34.059Z,92.15
2023-03-30T02:11:34.093Z,91.74
2023-03-30T02:12:34.073Z,91.64
2023-03-30T02:13:34.010Z,91.44
2023-03-30T02:14:34.005Z,91.39
2023-03-30T02:15:34.001Z,92.01
2023-03-30T02:16:34.085Z,91.23
2023-03-30T02:17:34.026Z,91.13
2023-03-30T02:18:34.026Z,91.19
2023-03-30T02:19:33.958Z,91.19
2023-03-30T02:20:33.945Z,90.88
2023-03-30T02:21:33.994Z,90.88
2023-03-30T02:22:33.914Z,90.17
2023-03-30T02:23:33.907Z,89.86
2023-03-30T02:24:33.918Z,89.35
2023-03-30T02:25:33.897Z,89.20
2023-03-30T02:26:33.875Z,88.90
2023-03-30T02:27:33.929Z,89.00
2023-03-30T02:28:33.843Z,89.00
2023-03-30T02:29:33.840Z,89.20
2023-03-30T02:30:33.879Z,89.11
2023-03-30T02:31:33.865Z,89.11
2023-03-30T02:32:33.818Z,89.11
2023-03-30T02:33:33.809Z,89.31
2023-03-30T02:34:33.799Z,89.31
2023-03-30T02:35:33.853Z,88.90
2023-03-30T02:36:33.748Z,88.29
2023-03-30T02:37:33.766Z,88.39
2023-03-30T02:38:33.746Z,88.04
2023-03-30T02:39:33.729Z,88.79
2023-03-30T02:40:33.803Z,88.79
2023-03-30T02:41:33.720Z,88.70
2023-03-30T02:42:33.713Z,89.31
2023-03-30T02:43:33.694Z,87.77
2023-03-30T02:44:33.687Z,87.98
2023-03-30T02:45:33.726Z,88.79
2023-03-30T02:46:33.900Z,87.37
2023-03-30T02:47:33.689Z,87.63
2023-03-30T02:48:33.645Z,87.63
2023-03-30T02:49:33.661Z,87.06
2023-03-30T02:50:33.625Z,86.76
2023-03-30T02:51:33.681Z,87.63
2023-03-30T02:52:33.596Z,87.94
2023-03-30T02:53:33.597Z,87.73
2023-03-30T02:54:33.586Z,88.45
2023-03-30T02:55:33.562Z,88.29
2023-03-30T02:56:33.602Z,88.08
2023-03-30T02:57:33.569Z,88.90
2023-03-30T02:58:33.608Z,87.98
2023-03-30T02:59:33.546Z,87.98
2023-03-30T03:00:33.511Z,89.20
2023-03-30T03:01:33.514Z,88.90
2023-03-30T03:02:33.597Z,88.59
2023-03-30T03:03:33.613Z,88.70
2023-03-30T03:04:33.557Z,88.59
2023-03-30T03:05:33.453Z,88.43
2023-03-30T03:06:33.439Z,88.49
2023-03-30T03:07:33.535Z,87.98
2023-03-30T03:08:33.424Z,87.16
2023-03-30T03:09:33.474Z,86.96
2023-03-30T03:10:33.399Z,87.37
2023-03-30T03:11:33.395Z,87.63
2023-03-30T03:12:33.452Z,87.43
2023-03-30T03:13:33.383Z,87.23
2023-03-30T03:14:33.424Z,87.32
2023-03-30T03:15:33.357Z,87.73
2023-03-30T03:16:33.394Z,87.12
2023-03-30T03:17:33.337Z,86.61
2023-03-30T03:18:33.377Z,87.53
2023-03-30T03:19:33.375Z,87.37
2023-03-30T03:20:33.314Z,87.47
2023-03-30T03:21:33.363Z,87.77
2023-03-30T03:22:33.282Z,87.67
2023-03-30T03:23:33.274Z,87.88
2023-03-30T03:24:33.320Z,87.57
2023-03-30T03:25:33.233Z,87.57
2023-03-30T03:26:33.233Z,87.67
2023-03-30T03:27:33.222Z,87.67
2023-03-30T03:28:33.224Z,87.57
2023-03-30T03:29:33.235Z,87.37
2023-03-30T03:30:33.243Z,87.77
2023-03-30T03:31:33.199Z,87.57
2023-03-30T03:32:33.234Z,86.96
2023-03-30T03:33:33.231Z,87.77
2023-03-30T03:34:33.144Z,87.98
2023-03-30T03:35:33.214Z,86.85
2023-03-30T03:36:33.126Z,87.67
2023-03-30T03:37:33.106Z,87.37
2023-03-30T03:38:33.123Z,87.57
2023-03-30T03:39:33.132Z,87.77
2023-03-30T03:40:33.170Z,87.26
2023-03-30T03:41:33.063Z,87.57
2023-03-30T03:42:33.069Z,86.96
2023-03-30T03:43:33.056Z,86.44
2023-03-30T03:44:33.038Z,86.96
2023-03-30T03:45:33.111Z,87.26
2023-03-30T03:46:33.067Z,85.73
2023-03-30T03:47:33.096Z,86.51
2023-03-30T03:48:32.995Z,86.55
2023-03-30T03:49:32.981Z,86.65
2023-03-30T03:50:32.975Z,86.55
2023-03-30T03:51:33.013Z,86.96
2023-03-30T03:52:32.979Z,87.26
2023-03-30T03:53:32.978Z,86.76
2023-03-30T03:54:32.921Z,87.26
2023-03-30T03:55:32.923Z,87.37
2023-03-30T03:56:33.045Z,86.69
2023-03-30T03:57:32.911Z,87.47
2023-03-30T03:58:32.890Z,87.47
2023-03-30T03:59:32.885Z,87.26
2023-03-30T04:00:32.886Z,86.96
2023-03-30T04:01:32.936Z,86.24
2023-03-30T04:02:32.955Z,85.89
2023-03-30T04:03:32.842Z,85.89
2023-03-30T04:04:32.844Z,86.20
2023-03-30T04:05:32.817Z,86.20
2023-03-30T04:06:32.853Z,86.04
2023-03-30T04:07:32.792Z,86.10
2023-03-30T04:08:32.785Z,86.41
2023-03-30T04:09:32.774Z,86.00
2023-03-30T04:10:32.832Z,85.69
2023-03-30T04:11:32.797Z,85.89
2023-03-30T04:12:32.748Z,85.79
2023-03-30T04:13:32.728Z,85.89
2023-03-30T04:14:32.739Z,86.00
2023-03-30T04:15:32.782Z,85.69
2023-03-30T04:16:32.787Z,85.69
2023-03-30T04:17:32.718Z,85.35
2023-03-30T04:18:32.672Z,85.55
2023-03-30T04:19:32.663Z,84.94
2023-03-30T04:20:32.641Z,85.24
2023-03-30T04:21:32.715Z,84.74
2023-03-30T04:22:32.892Z,84.42
2023-03-30T04:23:32.617Z,85.35
2023-03-30T04:24:32.621Z,85.21
2023-03-30T04:25:32.613Z,85.04
2023-03-30T04:26:32.637Z,84.22
2023-03-30T04:27:32.591Z,84.53
2023-03-30T04:28:32.561Z,85.04
2023-03-30T04:29:32.582Z,84.94
2023-03-30T04:30:32.541Z,84.74
2023-03-30T04:31:32.650Z,84.12
2023-03-30T04:32:32.548Z,84.80
2023-03-30T04:33:32.530Z,85.24
2023-03-30T04:34:32.498Z,84.74
2023-03-30T04:35:32.560Z,85.04
2023-03-30T04:36:32.578Z,84.94
2023-03-30T04:37:32.474Z,84.94
2023-03-30T04:38:32.462Z,84.74
2023-03-30T04:39:32.466Z,84.42
2023-03-30T04:40:32.459Z,84.94
2023-03-30T04:41:32.479Z,85.21
2023-03-30T04:42:32.448Z,84.90
2023-03-30T04:43:32.484Z,85.21
2023-03-30T04:44:32.397Z,84.74
2023-03-30T04:45:32.459Z,85.75
2023-03-30T04:46:32.403Z,85.14
2023-03-30T04:47:32.455Z,85.14
2023-03-30T04:48:32.418Z,85.21
2023-03-30T04:49:32.377Z,84.90
2023-03-30T04:50:32.335Z,84.80
2023-03-30T04:51:32.361Z,85.14
2023-03-30T04:52:32.357Z,85.24
2023-03-30T04:53:32.393Z,85.14
2023-03-30T04:54:33.335Z,85.14
2023-03-30T04:55:32.286Z,84.83
2023-03-30T04:56:32.278Z,84.83
2023-03-30T04:57:32.269Z,85.14
2023-03-30T04:58:32.311Z,84.33
2023-03-30T04:59:32.261Z,84.12
2023-03-30T05:00:32.230Z,84.39
2023-03-30T05:01:32.227Z,83.78
2023-03-30T05:02:32.286Z,83.98
2023-03-30T05:03:32.284Z,83.87
2023-03-30T05:04:32.251Z,83.67
2023-03-30T05:05:32.217Z,83.78
2023-03-30T05:06:32.183Z,83.78
2023-03-30T05:07:32.199Z,83.67
2023-03-30T05:08:32.216Z,84.08
2023-03-30T05:09:32.137Z,83.67
2023-03-30T05:10:32.154Z,83.57
2023-03-30T05:11:32.101Z,83.78
2023-03-30T05:12:32.125Z,83.57
2023-03-30T05:13:32.160Z,84.28
2023-03-30T05:14:32.074Z,84.08
2023-03-30T05:15:32.175Z,83.78
2023-03-30T05:16:33.104Z,83.61
2023-03-30T05:17:32.104Z,83.71
2023-03-30T05:18:32.106Z,84.33
2023-03-30T05:19:32.044Z,84.22
2023-03-30T05:20:32.085Z,84.22
2023-03-30T05:21:32.049Z,84.53
2023-03-30T05:22:31.998Z,83.81
2023-03-30T05:23:31.987Z,83.61
2023-03-30T05:24:31.983Z,84.33
2023-03-30T05:25:32.066Z,84.42
2023-03-30T05:26:32.049Z,84.53
2023-03-30T05:27:31.948Z,84.74
2023-03-30T05:28:32.548Z,84.83
2023-03-30T05:29:31.964Z,85.24
2023-03-30T05:30:31.910Z,85.04
2023-03-30T05:31:31.935Z,85.04
2023-03-30T05:32:32.047Z,85.49
2023-03-30T05:33:31.956Z,84.98
2023-03-30T05:34:31.903Z,85.75
2023-03-30T05:35:31.964Z,85.59
2023-03-30T05:36:31.856Z,85.38
2023-03-30T05:37:31.855Z,85.49
2023-03-30T05:38:31.845Z,85.79
2023-03-30T05:39:31.814Z,85.69
2023-03-30T05:40:31.883Z,86.10
2023-03-30T05:41:31.806Z,86.20
2023-03-30T05:42:31.778Z,85.89
2023-03-30T05:43:31.769Z,85.79
2023-03-30T05:44:31.757Z,86.00
2023-03-30T05:45:31.786Z,86.00
2023-03-30T05:46:31.875Z,86.26
2023-03-30T05:47:31.764Z,85.65
2023-03-30T05:48:31.712Z,84.83
2023-03-30T05:49:31.716Z,85.96
2023-03-30T05:50:31.709Z,85.86
2023-03-30T05:51:31.752Z,85.96
2023-03-30T05:52:31.698Z,85.35
2023-03-30T05:53:31.704Z,85.86
2023-03-30T05:54:31.669Z,84.94
2023-03-30T05:55:31.717Z,85.86
2023-03-30T05:56:31.726Z,85.24
2023-03-30T05:57:31.689Z,85.65
2023-03-30T05:58:31.635Z,85.21
2023-03-30T05:59:31.611Z,84.69
2023-03-30T06:00:31.646Z,85.21
2023-03-30T06:01:31.670Z,84.69
2023-03-30T06:02:31.607Z,84.69
2023-03-30T06:03:31.749Z,85.51
2023-03-30T06:04:31.712Z,85.10
2023-03-30T06:05:31.537Z,85.00
2023-03-30T06:06:31.601Z,84.25
2023-03-30T06:07:31.527Z,84.28
2023-03-30T06:08:31.559Z,84.34
2023-03-30T06:09:31.522Z,84.28
2023-03-30T06:10:31.504Z,84.96
2023-03-30T06:11:31.574Z,84.96
2023-03-30T06:12:31.478Z,84.86
2023-03-30T06:13:31.452Z,85.30
2023-03-30T06:14:31.446Z,85.06
2023-03-30T06:15:31.445Z,84.96
2023-03-30T06:16:31.548Z,84.86
2023-03-30T06:17:31.419Z,85.68
2023-03-30T06:18:31.424Z,84.80
2023-03-30T06:19:31.408Z,85.06
2023-03-30T06:20:31.416Z,84.75
2023-03-30T06:21:31.373Z,84.75
2023-03-30T06:22:32.004Z,84.66
2023-03-30T06:23:31.348Z,84.34
2023-03-30T06:24:31.382Z,84.66
2023-03-30T06:25:31.349Z,84.34
2023-03-30T06:26:31.335Z,84.34
2023-03-30T06:27:31.376Z,84.14
2023-03-30T06:28:31.291Z,84.41
2023-03-30T06:29:31.345Z,84.25
2023-03-30T06:30:31.282Z,83.90
2023-03-30T06:31:31.330Z,84.11
2023-03-30T06:32:31.414Z,84.82
2023-03-30T06:33:31.250Z,85.22
2023-03-30T06:34:31.286Z,83.84
2023-03-30T06:35:31.280Z,83.59
2023-03-30T06:36:45.069Z,84.31
2023-03-30T06:37:32.199Z,84.20
2023-03-30T06:38:31.200Z,84.00
2023-03-30T06:39:31.187Z,84.00
2023-03-30T06:40:31.231Z,83.35
2023-03-30T06:41:31.241Z,84.11
2023-03-30T06:42:31.147Z,83.25
2023-03-30T06:43:31.163Z,83.25
2023-03-30T06:44:31.134Z,83.15
2023-03-30T06:45:31.242Z,82.84
2023-03-30T06:46:31.554Z,83.35
2023-03-30T06:47:31.242Z,83.35
2023-03-30T06:48:31.099Z,83.25
2023-03-30T06:49:31.143Z,83.35
2023-03-30T06:50:31.129Z,83.04
2023-03-30T06:51:31.115Z,83.04
2023-03-30T06:52:31.045Z,83.15
2023-03-30T06:53:31.053Z,82.94
2023-03-30T06:54:31.037Z,82.74
2023-03-30T06:55:31.015Z,82.74
2023-03-30T06:56:31.082Z,82.64
2023-03-30T06:57:31.044Z,82.23
2023-03-30T06:58:31.042Z,81.99
2023-03-30T06:59:33.174Z,81.27
2023-03-30T07:00:30.960Z,82.09
2023-03-30T07:01:31.034Z,81.65
2023-03-30T07:02:30.960Z,81.54
2023-03-30T07:03:30.997Z,81.44
2023-03-30T07:04:30.931Z,81.54
2023-03-30T07:05:30.930Z,81.34
2023-03-30T07:06:30.903Z,80.99
2023-03-30T07:07:30.886Z,81.54
2023-03-30T07:08:30.916Z,82.15
2023-03-30T07:09:30.853Z,81.54
2023-03-30T07:10:30.859Z,81.04
2023-03-30T07:11:30.864Z,81.44
2023-03-30T07:12:30.871Z,81.34
2023-03-30T07:13:30.924Z,81.54
2023-03-30T07:14:30.809Z,82.90
2023-03-30T07:15:30.810Z,83.92
2023-03-30T07:16:30.838Z,83.72
2023-03-30T07:17:30.841Z,84.84
2023-03-30T07:18:30.830Z,85.35
2023-03-30T07:19:30.762Z,85.45
2023-03-30T07:20:31.023Z,85.69
2023-03-30T07:21:30.759Z,86.00
2023-03-30T07:22:30.754Z,86.41
2023-03-30T07:23:30.728Z,87.02
2023-03-30T07:24:31.742Z,87.43
2023-03-30T07:25:30.764Z,87.73
2023-03-30T07:26:30.742Z,87.88
2023-03-30T07:27:30.676Z,88.49
2023-03-30T07:28:30.757Z,88.79
2023-03-30T07:29:30.673Z,89.10
2023-03-30T07:30:30.637Z,89.61
2023-03-30T07:31:30.654Z,89.40
2023-03-30T07:32:30.693Z,89.96
2023-03-30T07:33:30.703Z,89.71
2023-03-30T07:34:30.633Z,90.63
2023-03-30T07:35:30.751Z,90.98
2023-03-30T07:36:30.640Z,90.98
2023-03-30T07:37:30.578Z,91.08
2023-03-30T07:38:30.564Z,91.35
2023-03-30T07:39:32.742Z,91.39
2023-03-30T07:40:30.695Z,91.69
2023-03-30T07:41:30.531Z,91.79
2023-03-30T07:42:30.528Z,91.79
2023-03-30T07:43:30.572Z,91.89
2023-03-30T07:44:30.499Z,91.44
2023-03-30T07:45:30.597Z,91.55
2023-03-30T07:46:30.505Z,91.85
2023-03-30T07:47:30.487Z,91.71
2023-03-30T07:48:30.612Z,92.42
2023-03-30T07:49:30.437Z,91.61
2023-03-30T07:50:30.451Z,91.30
2023-03-30T07:51:30.433Z,92.01
2023-03-30T07:52:30.548Z,91.81
2023-03-30T07:53:30.404Z,90.85
2023-03-30T07:54:30.395Z,90.85
2023-03-30T07:55:30.481Z,90.64
2023-03-30T07:56:30.436Z,90.85
2023-03-30T07:57:30.387Z,89.94
2023-03-30T07:58:30.359Z,89.97
2023-03-30T07:59:30.345Z,89.47
2023-03-30T08:00:30.326Z,89.94
2023-03-30T08:01:30.432Z,89.16
2023-03-30T08:02:30.350Z,88.71
2023-03-30T08:03:30.385Z,88.92
2023-03-30T08:04:30.434Z,89.32
2023-03-30T08:05:30.268Z,89.32
2023-03-30T08:06:30.351Z,89.22
2023-03-30T08:07:30.246Z,89.07
2023-03-30T08:08:30.268Z,89.59
2023-03-30T08:09:30.303Z,88.98
2023-03-30T08:10:30.238Z,88.77
2023-03-30T08:11:30.429Z,87.81
2023-03-30T08:12:30.200Z,87.61
2023-03-30T08:13:30.192Z,86.49
2023-03-30T08:14:30.193Z,87.20
2023-03-30T08:15:30.174Z,86.90
2023-03-30T08:16:30.242Z,86.80
2023-03-30T08:17:30.183Z,87.00
2023-03-30T08:18:30.152Z,87.00
2023-03-30T08:19:30.128Z,87.04
2023-03-30T08:20:30.181Z,86.53
2023-03-30T08:21:30.112Z,87.35
2023-03-30T08:22:30.168Z,86.53
2023-03-30T08:23:30.088Z,87.04
2023-03-30T08:24:30.070Z,87.14
2023-03-30T08:25:30.740Z,86.63
2023-03-30T08:26:30.045Z,87.14
2023-03-30T08:27:30.099Z,87.55
2023-03-30T08:28:30.032Z,87.85
2023-03-30T08:29:30.017Z,87.24
2023-03-30T08:30:30.070Z,87.35
2023-03-30T08:31:30.035Z,86.74
2023-03-30T08:32:30.154Z,86.74
2023-03-30T08:33:29.989Z,87.14
2023-03-30T08:34:30.004Z,87.45
2023-03-30T08:35:29.959Z,87.55
2023-03-30T08:36:29.937Z,86.39
2023-03-30T08:37:30.010Z,86.63
2023-03-30T08:38:29.958Z,86.69
2023-03-30T08:39:29.960Z,87.10
2023-03-30T08:40:29.926Z,86.80
2023-03-30T08:41:29.984Z,86.39
2023-03-30T08:42:29.889Z,86.65
2023-03-30T08:43:29.863Z,86.35
2023-03-30T08:44:29.871Z,86.35
2023-03-30T08:45:29.909Z,86.35
2023-03-30T08:46:29.917Z,85.64
2023-03-30T08:47:29.922Z,86.80
2023-03-30T08:48:29.823Z,87.51
2023-03-30T08:49:29.817Z,88.57
2023-03-30T08:50:29.805Z,88.98
2023-03-30T08:51:29.787Z,89.38
2023-03-30T08:52:29.835Z,90.30
2023-03-30T08:53:29.770Z,90.40
2023-03-30T08:54:29.775Z,90.85
2023-03-30T08:55:29.903Z,91.77
2023-03-30T08:56:29.732Z,92.01
2023-03-30T08:57:29.919Z,91.71
2023-03-30T08:58:29.713Z,92.32
2023-03-30T08:59:29.703Z,92.72
2023-03-30T09:00:29.730Z,93.18
2023-03-30T09:01:29.808Z,92.67
2023-03-30T09:02:29.698Z,93.89
2023-03-30T09:03:29.648Z,93.64
2023-03-30T09:04:29.650Z,93.33
2023-03-30T09:05:29.706Z,94.05
2023-03-30T09:06:29.716Z,93.33
2023-03-30T09:07:29.705Z,93.03
2023-03-30T09:08:29.604Z,93.13
2023-03-30T09:09:29.593Z,93.33
2023-03-30T09:10:29.585Z,93.24
2023-03-30T09:11:29.562Z,93.03
2023-03-30T09:12:29.623Z,93.33
2023-03-30T09:13:29.552Z,93.19
2023-03-30T09:14:29.544Z,92.27
2023-03-30T09:15:31.783Z,91.97
2023-03-30T09:16:29.545Z,92.27
2023-03-30T09:17:29.613Z,91.97
2023-03-30T09:18:29.487Z,91.26
2023-03-30T09:19:29.493Z,90.85
2023-03-30T09:20:29.508Z,90.70
2023-03-30T09:21:29.483Z,89.53
2023-03-30T09:22:29.518Z,89.59
2023-03-30T09:23:29.512Z,89.53
2023-03-30T09:24:29.455Z,89.53
2023-03-30T09:25:29.486Z,90.14
2023-03-30T09:26:29.413Z,90.64
2023-03-30T09:27:29.407Z,89.28
2023-03-30T09:28:29.398Z,89.42
2023-03-30T09:29:29.409Z,89.32
2023-03-30T09:30:29.396Z,89.42
2023-03-30T09:31:29.502Z,89.12
2023-03-30T09:32:29.397Z,88.61
2023-03-30T09:33:29.357Z,89.26
2023-03-30T09:34:29.346Z,89.57
2023-03-30T09:35:29.302Z,90.55
2023-03-30T09:36:29.437Z,89.69
2023-03-30T09:37:29.379Z,89.48
2023-03-30T09:38:29.284Z,88.87
2023-03-30T09:39:30.432Z,88.87
2023-03-30T09:40:29.272Z,88.83
2023-03-30T09:41:29.239Z,88.73
2023-03-30T09:42:29.243Z,89.03
2023-03-30T09:43:29.302Z,88.69
2023-03-30T09:44:29.285Z,87.16
2023-03-30T09:45:30.760Z,87.12
2023-03-30T09:46:29.283Z,86.10
2023-03-30T09:47:29.311Z,86.10
2023-03-30T09:48:29.244Z,84.88
2023-03-30T09:49:29.172Z,85.49
2023-03-30T09:50:29.193Z,85.70
2023-03-30T09:51:31.067Z,85.80
2023-03-30T09:52:29.163Z,84.88
2023-03-30T09:53:29.888Z,86.21
2023-03-30T09:54:29.140Z,86.00
2023-03-30T09:55:29.101Z,86.00
2023-03-30T09:56:29.156Z,85.19
2023-03-30T09:57:29.218Z,84.74
2023-03-30T09:58:29.392Z,84.44
2023-03-30T09:59:29.157Z,84.60
2023-03-30T10:00:29.075Z,82.78
2023-03-30T10:01:29.093Z,82.26
2023-03-30T10:02:29.205Z,82.17
2023-03-30T10:03:29.114Z,82.78
2023-03-30T10:04:29.062Z,83.18
2023-03-30T10:05:28.999Z,83.38
2023-03-30T10:06:28.996Z,82.37
2023-03-30T10:07:29.047Z,82.17
2023-03-30T10:08:28.965Z,82.26
2023-03-30T10:09:28.996Z,81.96
2023-03-30T10:10:28.995Z,80.74
2023-03-30T10:11:28.984Z,80.78
2023-03-30T10:12:28.955Z,80.88
2023-03-30T10:13:29.001Z,80.92
2023-03-30T10:14:29.088Z,81.33
2023-03-30T10:15:28.895Z,81.84
2023-03-30T10:16:28.955Z,81.53
2023-03-30T10:17:28.930Z,81.93
2023-03-30T10:18:28.870Z,81.93
2023-03-30T10:19:28.912Z,81.16
2023-03-30T10:20:29.007Z,81.87
2023-03-30T10:21:28.879Z,82.28
2023-03-30T10:22:28.838Z,82.38
2023-03-30T10:23:28.813Z,82.38
2023-03-30T10:24:28.888Z,82.07
2023-03-30T10:25:28.907Z,81.57
2023-03-30T10:26:28.783Z,81.57
2023-03-30T10:27:28.771Z,80.85
2023-03-30T10:28:28.784Z,81.16
2023-03-30T10:29:28.801Z,80.96
2023-03-30T10:30:28.737Z,81.77
2023-03-30T10:31:28.785Z,81.26
2023-03-30T10:32:28.751Z,80.38
2023-03-30T10:33:28.756Z,80.79
2023-03-30T10:34:28.716Z,81.30
2023-03-30T10:35:28.783Z,80.29
2023-03-30T10:36:28.691Z,81.20
2023-03-30T10:37:28.683Z,81.51
2023-03-30T10:38:28.640Z,80.38
2023-03-30T10:39:28.685Z,81.10
2023-03-30T10:40:28.633Z,80.79
2023-03-30T10:41:28.708Z,81.71
2023-03-30T10:42:28.614Z,80.55
2023-03-30T10:43:28.606Z,81.51
2023-03-30T10:44:28.654Z,81.57
2023-03-30T10:45:28.584Z,81.37
2023-03-30T10:46:28.828Z,81.06
2023-03-30T10:47:28.631Z,81.16
2023-03-30T10:48:28.582Z,82.18
2023-03-30T10:49:28.605Z,82.07
2023-03-30T10:50:28.543Z,81.98
2023-03-30T10:51:28.585Z,81.67
2023-03-30T10:52:28.540Z,81.16
2023-03-30T10:53:28.497Z,82.54
2023-03-30T10:54:28.514Z,82.48
2023-03-30T10:55:28.487Z,82.04
2023-03-30T10:56:28.525Z,82.34
2023-03-30T10:57:28.567Z,81.84
2023-03-30T10:58:28.452Z,81.63
2023-03-30T10:59:28.441Z,81.93
2023-03-30T11:00:28.422Z,81.53
2023-03-30T11:01:28.499Z,81.19
2023-03-30T11:02:28.523Z,80.78
2023-03-30T11:03:28.497Z,79.25
2023-03-30T11:04:28.552Z,79.56
2023-03-30T11:05:30.411Z,79.46
2023-03-30T11:06:28.368Z,79.25
2023-03-30T11:07:28.415Z,80.13
2023-03-30T11:08:28.347Z,80.50
2023-03-30T11:09:28.383Z,80.60
2023-03-30T11:10:28.384Z,80.60
2023-03-30T11:11:28.294Z,79.14
2023-03-30T11:12:28.367Z,78.44
2023-03-30T11:13:28.316Z,78.27
2023-03-30T11:14:28.301Z,78.57
2023-03-30T11:15:28.328Z,78.47
2023-03-30T11:16:28.271Z,78.78
2023-03-30T11:17:28.339Z,79.22
2023-03-30T11:18:28.224Z,79.22
2023-03-30T11:19:28.219Z,79.56
2023-03-30T11:20:28.218Z,80.37
2023-03-30T11:21:28.279Z,82.71
2023-03-30T11:22:28.965Z,83.06
2023-03-30T11:23:28.167Z,83.46
2023-03-30T11:24:28.162Z,84.72
2023-03-30T11:25:28.205Z,85.64
2023-03-30T11:26:28.200Z,87.10
2023-03-30T11:27:28.192Z,87.35
2023-03-30T11:28:28.134Z,88.51
2023-03-30T11:29:28.146Z,88.65
2023-03-30T11:30:28.089Z,88.59
2023-03-30T11:31:28.161Z,89.14
2023-03-30T11:32:28.131Z,89.49
2023-03-30T11:33:28.095Z,90.96
2023-03-30T11:34:28.056Z,90.75
2023-03-30T11:35:28.164Z,90.80
2023-03-30T11:36:28.032Z,91.35
2023-03-30T11:37:28.166Z,91.19
2023-03-30T11:38:28.022Z,92.21
2023-03-30T11:39:32.199Z,92.97
2023-03-30T11:40:28.082Z,93.65
2023-03-30T11:41:28.003Z,93.69
2023-03-30T11:42:27.976Z,94.40
2023-03-30T11:43:27.969Z,95.43
2023-03-30T11:44:27.983Z,93.85
2023-03-30T11:45:28.034Z,94.06
2023-03-30T11:46:28.039Z,94.15
2023-03-30T11:47:28.055Z,94.06
2023-03-30T11:48:27.956Z,94.01
2023-03-30T11:49:27.897Z,94.17
2023-03-30T11:50:27.891Z,95.09
2023-03-30T11:51:27.931Z,95.15
2023-03-30T11:52:27.881Z,94.74
2023-03-30T11:53:27.864Z,95.72
2023-03-30T11:54:27.850Z,96.48
2023-03-30T11:55:27.836Z,96.08
2023-03-30T11:56:27.927Z,95.62
2023-03-30T11:57:27.931Z,94.81
2023-03-30T11:58:27.805Z,94.71
2023-03-30T11:59:27.801Z,94.76
2023-03-30T12:00:27.785Z,95.28
2023-03-30T12:01:27.930Z,95.28
2023-03-30T12:02:27.841Z,95.13
2023-03-30T12:03:27.843Z,95.03
2023-03-30T12:04:27.778Z,94.42
2023-03-30T12:05:27.741Z,94.72
2023-03-30T12:06:27.888Z,93.19
2023-03-30T12:07:27.723Z,93.40
2023-03-30T12:08:27.770Z,92.99
2023-03-30T12:09:27.691Z,92.48
2023-03-30T12:10:27.681Z,94.01
2023-03-30T12:11:27.663Z,93.29
2023-03-30T12:12:27.706Z,94.01
2023-03-30T12:13:29.397Z,94.72
2023-03-30T12:14:28.705Z,94.01
2023-03-30T12:15:27.618Z,93.40
2023-03-30T12:16:28.368Z,94.21
2023-03-30T12:17:27.643Z,92.99
2023-03-30T12:18:27.703Z,93.50
2023-03-30T12:19:27.611Z,93.60
2023-03-30T12:20:27.577Z,93.70
2023-03-30T12:21:27.562Z,93.80
2023-03-30T12:22:27.544Z,94.72
2023-03-30T12:23:27.609Z,94.47
2023-03-30T12:24:27.610Z,93.86
2023-03-30T12:25:27.518Z,93.82
2023-03-30T12:26:27.757Z,93.67
2023-03-30T12:27:27.514Z,94.48
2023-03-30T12:28:35.709Z,93.06
2023-03-30T12:30:27.800Z,92.00
2023-03-30T12:31:27.493Z,90.83
2023-03-30T12:32:28.916Z,89.46
2023-03-30T12:33:28.838Z,88.75
2023-03-30T12:34:27.451Z,88.30
2023-03-30T12:35:27.466Z,88.20
2023-03-30T12:36:27.401Z,88.30
2023-03-30T12:37:29.351Z,87.18
2023-03-30T12:38:27.381Z,85.41
2023-03-30T12:39:27.377Z,85.01
2023-03-30T12:40:27.569Z,85.27
2023-03-30T12:41:27.558Z,86.69
2023-03-30T12:42:27.544Z,85.98
2023-03-30T12:43:28.261Z,82.64
2023-03-30T12:44:27.325Z,83.14
2023-03-30T12:45:27.396Z,83.45
2023-03-30T12:46:27.359Z,83.69
2023-03-30T12:47:27.290Z,82.73
2023-03-30T12:48:27.787Z,82.12
2023-03-30T12:49:27.321Z,82.23
2023-03-30T12:50:27.355Z,80.64
2023-03-30T12:51:27.339Z,79.22
2023-03-30T12:52:27.607Z,79.72
2023-03-30T12:53:27.265Z,79.56